createdAt,value
2023-03-11T00:00:33.524Z,98300.81
2023-03-11T00:03:36.328Z,98291.84
2023-03-11T00:06:39.052Z,98302.97
2023-03-11T00:09:42.205Z,98303.66
2023-03-11T00:12:44.896Z,98298.34
2023-03-11T00:15:51.114Z,98292.28
2023-03-11T00:18:53.915Z,98293.34
2023-03-11T00:21:58.027Z,98281.22
2023-03-11T00:25:00.625Z,98280.09
2023-03-11T00:28:04.794Z,98287.09
2023-03-11T00:31:07.583Z,98285.22
2023-03-11T00:34:10.657Z,98276.75
2023-03-11T00:37:13.244Z,98280.84
2023-03-11T00:40:19.463Z,98286.22
2023-03-11T00:43:24.142Z,98288.97
2023-03-11T00:46:27.477Z,98286.37
2023-03-11T00:49:30.021Z,98298.88
2023-03-11T00:52:33.559Z,98285.53
2023-03-11T00:55:36.825Z,98290.12
2023-03-11T00:58:41.397Z,98282.72
2023-03-11T01:01:44.196Z,98280.03
2023-03-11T01:04:47.323Z,98294.19
2023-03-11T01:07:50.281Z,98299.72
2023-03-11T01:10:53.669Z,98282.53
2023-03-11T01:13:56.453Z,98280.38
2023-03-11T01:16:59.308Z,98283.53
2023-03-11T01:20:02.023Z,98274.12
2023-03-11T01:23:06.226Z,98266.78
2023-03-11T01:26:09.203Z,98268.94
2023-03-11T01:29:12.138Z,98269.13
2023-03-11T01:32:14.734Z,98264.41
2023-03-11T01:35:20.268Z,98267.78
2023-03-11T01:38:22.832Z,98274.72
2023-03-11T01:41:25.683Z,98266.88
2023-03-11T01:44:28.402Z,98271.31
2023-03-11T01:47:38.633Z,98249.59
2023-03-11T01:50:46.288Z,98232.94
2023-03-11T01:53:49.711Z,98241.09
2023-03-11T01:56:53.109Z,98234.78
2023-03-11T02:00:01.698Z,98240.91
2023-03-11T02:03:11.569Z,98256.28
2023-03-11T02:06:18.341Z,98265.00
2023-03-11T02:09:23.379Z,98272.44
2023-03-11T02:12:31.236Z,98274.09
2023-03-11T02:15:33.998Z,98271.37
2023-03-11T02:18:38.059Z,98277.78
2023-03-11T02:21:41.007Z,98269.47
2023-03-11T02:24:53.872Z,98264.91
2023-03-11T02:27:58.901Z,98280.75
2023-03-11T02:31:02.433Z,98280.84
2023-03-11T02:34:11.296Z,98277.56
2023-03-11T02:37:17.128Z,98276.84
2023-03-11T02:40:22.961Z,98283.16
2023-03-11T02:43:51.658Z,98267.22
2023-03-11T02:46:55.104Z,98277.34
2023-03-11T02:49:58.519Z,98279.44
2023-03-11T02:53:01.156Z,98279.22
2023-03-11T02:56:04.402Z,98271.19
2023-03-11T02:59:07.340Z,98282.78
2023-03-11T03:02:10.384Z,98281.22
2023-03-11T03:05:14.479Z,98285.47
2023-03-11T03:08:17.787Z,98292.50
2023-03-11T03:11:20.690Z,98295.09
2023-03-11T03:14:24.238Z,98304.31
2023-03-11T03:17:27.150Z,98318.38
2023-03-11T03:20:30.482Z,98306.91
2023-03-11T03:23:35.401Z,98306.91
2023-03-11T03:26:38.274Z,98307.59
2023-03-11T03:29:41.758Z,98313.81
2023-03-11T03:35:48.913Z,98329.53
2023-03-11T03:38:56.768Z,98330.44
2023-03-11T03:42:01.573Z,98306.84
2023-03-11T03:45:07.191Z,98321.00
2023-03-11T03:48:10.486Z,98335.94
2023-03-11T03:51:14.734Z,98351.88
2023-03-11T03:54:17.844Z,98320.84
2023-03-11T03:57:21.141Z,98356.06
2023-03-11T04:00:24.061Z,98395.97
2023-03-11T04:03:28.680Z,98329.69
2023-03-11T04:06:32.494Z,98341.91
2023-03-11T04:09:38.714Z,98352.34
2023-03-11T04:12:41.876Z,98337.06
2023-03-11T04:15:44.885Z,98373.88
2023-03-11T04:18:47.951Z,98389.12
2023-03-11T04:21:52.011Z,98384.81
2023-03-11T04:24:55.150Z,98406.50
2023-03-11T04:27:58.160Z,98403.56
2023-03-11T04:31:01.641Z,98414.09
2023-03-11T04:34:05.574Z,98398.69
2023-03-11T04:37:08.332Z,98404.38
2023-03-11T04:40:13.743Z,98400.53
2023-03-11T04:43:16.567Z,98383.50
2023-03-11T04:46:21.055Z,98415.72
2023-03-11T04:49:24.559Z,98396.25
2023-03-11T04:52:27.894Z,98389.78
2023-03-11T04:55:31.028Z,98404.59
2023-03-11T04:58:34.384Z,98395.13
2023-03-11T05:01:37.459Z,98435.19
2023-03-11T05:04:41.088Z,98426.28
2023-03-11T05:07:43.857Z,98466.81
2023-03-11T05:10:47.773Z,98462.22
2023-03-11T05:13:50.482Z,98435.97
2023-03-11T05:16:54.268Z,98445.00
2023-03-11T05:19:57.578Z,98438.63
2023-03-11T05:23:00.765Z,98433.00
2023-03-11T05:26:05.588Z,98441.28
2023-03-11T05:29:08.840Z,98433.06
2023-03-11T05:32:12.956Z,98451.31
2023-03-11T05:35:17.215Z,98433.28
2023-03-11T05:38:20.134Z,98473.91
2023-03-11T05:41:23.417Z,98472.44
2023-03-11T05:44:26.498Z,98476.78
2023-03-11T05:47:31.329Z,98469.53
2023-03-11T05:50:34.582Z,98496.34
2023-03-11T05:53:38.787Z,98524.25
2023-03-11T05:56:43.365Z,98506.84
2023-03-11T05:59:49.347Z,98525.31
2023-03-11T06:02:52.137Z,98517.00
2023-03-11T06:05:55.655Z,98514.16
2023-03-11T06:08:59.120Z,98510.31
2023-03-11T06:12:04.246Z,98499.56
2023-03-11T06:15:09.437Z,98521.50
2023-03-11T06:18:12.547Z,98518.84
2023-03-11T06:21:24.579Z,98522.41
2023-03-11T06:24:27.598Z,98515.84
2023-03-11T06:27:30.224Z,98528.03
2023-03-11T06:30:33.416Z,98537.91
2023-03-11T06:33:36.873Z,98554.47
2023-03-11T06:36:40.009Z,98572.16
2023-03-11T06:39:42.573Z,98565.19
2023-03-11T06:42:47.842Z,98575.63
2023-03-11T06:45:50.764Z,98573.66
2023-03-11T06:48:54.491Z,98590.75
2023-03-11T06:51:57.801Z,98596.66
2023-03-11T06:55:00.841Z,98609.03
2023-03-11T06:58:04.133Z,98622.91
2023-03-11T07:01:14.643Z,98630.63
2023-03-11T07:04:17.941Z,98610.84
2023-03-11T07:07:21.467Z,98607.56
2023-03-11T07:10:24.184Z,98625.97
2023-03-11T07:13:27.266Z,98599.66
2023-03-11T07:16:31.211Z,98592.69
2023-03-11T07:19:35.006Z,98612.03
2023-03-11T07:22:37.667Z,98598.19
2023-03-11T07:25:46.789Z,98611.44
2023-03-11T07:28:49.679Z,98613.72
2023-03-11T07:31:52.787Z,98627.28
2023-03-11T07:34:55.618Z,98637.84
2023-03-11T07:37:58.488Z,98626.91
2023-03-11T07:41:01.254Z,98636.87
2023-03-11T07:44:05.166Z,98634.47
2023-03-11T07:47:07.763Z,98646.75
2023-03-11T07:50:11.461Z,98655.94
2023-03-11T07:53:14.230Z,98654.16
2023-03-11T07:56:17.996Z,98622.41
2023-03-11T07:59:20.657Z,98626.22
2023-03-11T08:02:23.623Z,98633.41
2023-03-11T08:05:26.583Z,98665.34
2023-03-11T08:08:29.184Z,98676.06
2023-03-11T08:11:33.002Z,98697.25
2023-03-11T08:14:35.608Z,98687.91
2023-03-11T08:17:38.505Z,98685.72
2023-03-11T08:20:41.449Z,98686.66
2023-03-11T08:23:46.110Z,98724.09
2023-03-11T08:26:48.840Z,98733.22
2023-03-11T08:29:51.757Z,98717.00
2023-03-11T08:32:54.577Z,98756.94
2023-03-11T08:35:57.590Z,98805.13
2023-03-11T08:39:00.346Z,98779.97
2023-03-11T08:42:03.430Z,98767.19
2023-03-11T08:45:06.879Z,98769.84
2023-03-11T08:48:11.586Z,98773.75
2023-03-11T08:51:14.771Z,98768.47
2023-03-11T08:54:17.660Z,98766.84
2023-03-11T08:57:20.251Z,98752.75
2023-03-11T09:00:23.617Z,98746.09
2023-03-11T09:03:26.247Z,98788.44
2023-03-11T09:06:30.520Z,98722.75
2023-03-11T09:09:33.184Z,98762.34
2023-03-11T09:12:36.358Z,98740.97
2023-03-11T09:15:40.050Z,98728.16
2023-03-11T09:18:43.217Z,98731.41
2023-03-11T09:21:46.145Z,98741.28
2023-03-11T09:24:49.634Z,98754.84
2023-03-11T09:27:52.340Z,98760.97
2023-03-11T09:30:55.264Z,98748.00
2023-03-11T09:33:58.035Z,98768.81
2023-03-11T09:37:01.460Z,98763.66
2023-03-11T09:40:04.704Z,98766.81
2023-03-11T09:43:25.068Z,98755.91
2023-03-11T09:46:35.295Z,98761.34
2023-03-11T09:49:47.193Z,98775.56
2023-03-11T09:53:01.853Z,98775.13
2023-03-11T09:56:07.807Z,98778.41
2023-03-11T09:59:32.632Z,98751.63
2023-03-11T10:02:37.768Z,98748.22
2023-03-11T10:05:42.778Z,98780.44
2023-03-11T10:09:06.945Z,98760.22
2023-03-11T10:12:41.077Z,98744.75
2023-03-11T10:15:56.580Z,98774.87
2023-03-11T10:19:15.882Z,98769.97
2023-03-11T10:22:36.158Z,98789.47
2023-03-11T10:25:56.770Z,98783.00
2023-03-11T10:29:25.770Z,98794.75
2023-03-11T10:32:51.996Z,98782.22
2023-03-11T10:35:58.733Z,98777.28
2023-03-11T10:39:03.455Z,98806.94
2023-03-11T10:42:13.249Z,98808.16
2023-03-11T10:45:16.422Z,98813.31
2023-03-11T10:48:20.859Z,98842.97
2023-03-11T10:51:28.159Z,98837.69
2023-03-11T10:54:35.554Z,98861.53
2023-03-11T10:57:38.946Z,98837.72
2023-03-11T11:00:41.718Z,98838.69
2023-03-11T11:03:47.968Z,98855.44
2023-03-11T11:06:50.535Z,98839.16
2023-03-11T11:10:26.769Z,98839.84
2023-03-11T11:13:32.451Z,98855.00
2023-03-11T11:16:36.370Z,98855.78
2023-03-11T11:19:45.301Z,98857.41
2023-03-11T11:23:03.624Z,98831.38
2023-03-11T11:26:17.149Z,98863.81
2023-03-11T11:29:20.264Z,98879.00
2023-03-11T11:32:27.204Z,98880.16
2023-03-11T11:35:30.090Z,98856.66
2023-03-11T11:38:34.763Z,98885.97
2023-03-11T11:41:37.998Z,98885.41
2023-03-11T11:44:43.091Z,98863.69
2023-03-11T11:47:54.124Z,98866.44
2023-03-11T11:51:01.206Z,98853.72
2023-03-11T11:54:17.567Z,98854.12
2023-03-11T11:57:22.638Z,98858.25
2023-03-11T12:00:38.372Z,98852.13
2023-03-11T12:04:20.136Z,98877.75
2023-03-11T12:07:49.221Z,98855.19
2023-03-11T12:10:57.550Z,98899.31
2023-03-11T12:14:31.673Z,98895.97
2023-03-11T12:17:41.934Z,98886.09
2023-03-11T12:20:58.619Z,98887.72
2023-03-11T12:24:10.559Z,98895.09
2023-03-11T12:27:24.617Z,98847.53
2023-03-11T12:30:36.942Z,98885.66
2023-03-11T12:34:03.249Z,98877.44
2023-03-11T12:37:14.910Z,98880.09
2023-03-11T12:40:46.270Z,98877.50
2023-03-11T12:43:52.158Z,98900.72
2023-03-11T12:46:54.871Z,98938.31
2023-03-11T12:50:35.276Z,98889.84
2023-03-11T12:53:49.013Z,98886.00
2023-03-11T12:57:16.538Z,98922.34
2023-03-11T13:00:30.244Z,98919.69
2023-03-11T13:03:46.724Z,98964.50
2023-03-11T13:07:07.617Z,98943.69
2023-03-11T13:10:18.454Z,98966.91
2023-03-11T13:13:30.307Z,98957.59
2023-03-11T13:16:33.158Z,98952.59
2023-03-11T13:19:37.841Z,98968.44
2023-03-11T13:22:58.177Z,98974.56
2023-03-11T13:26:31.346Z,98979.66
2023-03-11T13:29:57.367Z,98974.44
2023-03-11T13:33:13.187Z,98978.09
2023-03-11T13:36:26.880Z,98979.97
2023-03-11T13:39:44.524Z,98990.91
2023-03-11T13:42:54.362Z,98995.59
2023-03-11T13:46:11.929Z,99024.25
2023-03-11T13:49:23.951Z,98996.22
2023-03-11T13:52:33.022Z,99006.91
2023-03-11T13:55:45.184Z,99002.94
2023-03-11T13:58:47.984Z,99033.91
2023-03-11T14:01:57.309Z,99015.53
2023-03-11T14:05:09.925Z,99034.88
2023-03-11T14:08:19.425Z,99052.19
2023-03-11T14:11:29.101Z,99049.59
2023-03-11T14:14:56.379Z,99059.22
2023-03-11T14:18:27.713Z,99047.94
2023-03-11T14:21:33.580Z,99066.03
2023-03-11T14:24:37.756Z,99043.22
2023-03-11T14:27:48.519Z,99070.22
2023-03-11T14:30:59.871Z,99067.22
2023-03-11T14:34:25.360Z,99072.38
2023-03-11T14:37:32.540Z,99083.12
2023-03-11T14:40:42.110Z,99060.91
2023-03-11T14:43:49.440Z,99088.75
2023-03-11T14:46:55.352Z,99090.25
2023-03-11T14:49:59.492Z,99087.69
2023-03-11T14:53:24.442Z,99096.72
2023-03-11T14:56:28.389Z,99091.56
2023-03-11T14:59:33.312Z,99130.13
2023-03-11T15:03:04.796Z,99108.06
2023-03-11T15:06:20.255Z,99118.09
2023-03-11T15:09:24.469Z,99132.81
2023-03-11T15:12:36.009Z,99141.25
2023-03-11T15:15:39.095Z,99156.03
2023-03-11T15:18:42.675Z,99150.66
2023-03-11T15:21:47.406Z,99164.19
2023-03-11T15:24:53.412Z,99162.00
2023-03-11T15:27:56.880Z,99176.53
2023-03-11T15:31:31.187Z,99182.78
2023-03-11T15:34:35.361Z,99191.28
2023-03-11T15:37:39.800Z,99172.53
2023-03-11T15:40:54.988Z,99172.78
2023-03-11T15:44:01.996Z,99193.91
2023-03-11T15:47:05.422Z,99181.53
2023-03-11T15:50:23.819Z,99171.75
2023-03-11T15:53:28.893Z,99190.81
2023-03-11T15:56:33.213Z,99204.56
2023-03-11T15:59:37.367Z,99204.28
2023-03-11T16:02:39.944Z,99200.03
2023-03-11T16:05:42.915Z,99227.81
2023-03-11T16:08:45.445Z,99232.53
2023-03-11T16:11:48.414Z,99242.25
2023-03-11T16:14:51.008Z,99236.47
2023-03-11T16:17:55.254Z,99242.94
2023-03-11T16:20:58.230Z,99257.25
2023-03-11T16:24:01.410Z,99260.59
2023-03-11T16:27:04.061Z,99255.63
2023-03-11T16:30:07.777Z,99277.53
2023-03-11T16:33:10.753Z,99277.72
2023-03-11T16:36:13.580Z,99267.75
2023-03-11T16:39:16.291Z,99256.19
2023-03-11T16:42:23.649Z,99277.19
2023-03-11T16:45:26.312Z,99294.75
2023-03-11T16:48:29.228Z,99291.53
2023-03-11T16:51:32.123Z,99289.31
2023-03-11T16:54:35.232Z,99304.03
2023-03-11T16:57:39.413Z,99315.75
2023-03-11T17:00:43.507Z,99325.19
2023-03-11T17:03:48.678Z,99319.09
2023-03-11T17:06:54.833Z,99328.78
2023-03-11T17:10:00.971Z,99344.31
2023-03-11T17:13:05.495Z,99353.25
2023-03-11T17:16:08.103Z,99372.94
2023-03-11T17:19:11.451Z,99386.81
2023-03-11T17:22:15.407Z,99403.34
2023-03-11T17:25:18.468Z,99391.66
2023-03-11T17:28:21.017Z,99402.97
2023-03-11T17:31:24.097Z,99402.09
2023-03-11T17:34:26.807Z,99405.84
2023-03-11T17:37:29.683Z,99413.03
2023-03-11T17:40:32.858Z,99414.84
2023-03-11T17:43:35.957Z,99425.88
2023-03-11T17:46:40.152Z,99444.22
2023-03-11T17:49:43.730Z,99444.91
2023-03-11T17:52:47.095Z,99447.56
2023-03-11T17:55:50.000Z,99449.03
2023-03-11T17:58:52.652Z,99444.66
2023-03-11T18:01:55.860Z,99464.41
2023-03-11T18:04:58.694Z,99467.91
2023-03-11T18:08:01.356Z,99454.22
2023-03-11T18:11:06.982Z,99473.94
2023-03-11T18:14:10.115Z,99482.63
2023-03-11T18:17:13.035Z,99480.06
2023-03-11T18:20:16.902Z,99487.94
2023-03-11T18:23:19.945Z,99492.19
2023-03-11T18:26:24.319Z,99515.31
2023-03-11T18:29:27.270Z,99504.72
2023-03-11T18:32:29.929Z,99513.63
2023-03-11T18:35:32.792Z,99524.91
2023-03-11T18:38:35.365Z,99519.56
2023-03-11T18:41:38.677Z,99508.63
2023-03-11T18:44:42.144Z,99535.47
2023-03-11T18:47:45.112Z,99530.19
2023-03-11T18:50:55.942Z,99545.22
2023-03-11T18:54:00.122Z,99543.09
2023-03-11T18:57:02.705Z,99537.03
2023-03-11T19:00:06.142Z,99544.75
2023-03-11T19:03:11.265Z,99552.59
2023-03-11T19:06:14.633Z,99562.88
2023-03-11T19:09:18.487Z,99557.22
2023-03-11T19:12:21.482Z,99564.81
2023-03-11T19:15:24.229Z,99565.78
2023-03-11T19:18:27.144Z,99575.31
2023-03-11T19:21:29.730Z,99594.75
2023-03-11T19:24:32.681Z,99588.91
2023-03-11T19:27:35.252Z,99594.00
2023-03-11T19:30:38.852Z,99589.13
2023-03-11T19:33:43.265Z,99597.75
2023-03-11T19:36:46.990Z,99599.38
2023-03-11T19:39:49.689Z,99608.06
2023-03-11T19:42:52.706Z,99618.41
2023-03-11T19:45:55.723Z,99610.75
2023-03-11T19:48:59.638Z,99604.34
2023-03-11T19:52:02.379Z,99616.59
2023-03-11T19:55:05.706Z,99613.31
2023-03-11T19:58:08.480Z,99620.28
2023-03-11T20:01:19.139Z,99617.81
2023-03-11T20:04:21.984Z,99616.16
2023-03-11T20:07:24.723Z,99623.88
2023-03-11T20:10:29.460Z,99624.16
2023-03-11T20:13:34.180Z,99642.09
2023-03-11T20:16:37.181Z,99625.31
2023-03-11T20:19:39.868Z,99625.41
2023-03-11T20:22:42.780Z,99617.75
2023-03-11T20:25:45.430Z,99610.31
2023-03-11T20:28:48.434Z,99615.50
2023-03-11T20:31:51.472Z,99613.03
2023-03-11T20:34:54.300Z,99606.72
2023-03-11T20:37:58.370Z,99621.25
2023-03-11T20:41:01.551Z,99627.19
2023-03-11T20:44:06.885Z,99611.78
2023-03-11T20:47:09.839Z,99602.56
2023-03-11T20:50:12.890Z,99611.38
2023-03-11T20:53:16.437Z,99602.66
2023-03-11T20:56:22.195Z,99601.03
2023-03-11T20:59:25.305Z,99601.19
2023-03-11T21:02:30.904Z,99592.00
2023-03-11T21:05:38.065Z,99596.31
2023-03-11T21:08:41.222Z,99590.34
2023-03-11T21:11:44.287Z,99594.50
2023-03-11T21:14:46.941Z,99592.91
2023-03-11T21:17:49.851Z,99598.75
2023-03-11T21:20:52.517Z,99593.75
2023-03-11T21:23:55.416Z,99602.16
2023-03-11T21:26:58.078Z,99617.75
2023-03-11T21:30:01.022Z,99636.63
2023-03-11T21:33:03.795Z,99645.91
2023-03-11T21:36:08.285Z,99632.16
2023-03-11T21:39:10.941Z,99645.75
2023-03-11T21:42:14.294Z,99657.75
2023-03-11T21:45:17.958Z,99666.41
2023-03-11T21:48:21.012Z,99675.88
2023-03-11T21:51:24.355Z,99674.13
2023-03-11T21:54:27.360Z,99689.53
2023-03-11T21:57:29.953Z,99682.78
2023-03-11T22:00:35.188Z,99692.19
2023-03-11T22:03:38.627Z,99682.72
2023-03-11T22:06:41.441Z,99684.38
2023-03-11T22:09:44.351Z,99686.94
2023-03-11T22:12:47.014Z,99686.94
2023-03-11T22:15:50.524Z,99687.56
2023-03-11T22:18:53.639Z,99690.19
2023-03-11T22:21:56.699Z,99695.47
2023-03-11T22:24:59.378Z,99706.59
2023-03-11T22:28:02.394Z,99717.75
2023-03-11T22:31:09.763Z,99717.56
2023-03-11T22:34:12.724Z,99725.31
2023-03-11T22:37:20.307Z,99716.91
2023-03-11T22:40:23.288Z,99721.91
2023-03-11T22:43:26.971Z,99736.59
2023-03-11T22:46:29.823Z,99747.06
2023-03-11T22:49:32.531Z,99750.44
2023-03-11T22:52:35.791Z,99758.09
2023-03-11T22:55:48.039Z,99764.97
2023-03-11T22:58:51.285Z,99776.84
2023-03-11T23:01:53.871Z,99770.13
2023-03-11T23:04:56.769Z,99771.06
2023-03-11T23:07:59.290Z,99775.28
2023-03-11T23:11:04.658Z,99778.16
2023-03-11T23:14:07.554Z,99784.06
2023-03-11T23:17:10.427Z,99794.19
2023-03-11T23:20:16.336Z,99792.38
2023-03-11T23:23:19.259Z,99802.63
2023-03-11T23:26:22.337Z,99794.19
2023-03-11T23:29:25.143Z,99794.28
2023-03-11T23:32:27.973Z,99808.00
2023-03-11T23:35:31.791Z,99816.50
2023-03-11T23:38:35.391Z,99813.16
2023-03-11T23:41:38.559Z,99814.84
2023-03-11T23:44:41.297Z,99808.13
2023-03-11T23:47:44.290Z,99811.59
2023-03-11T23:50:51.483Z,99812.34
2023-03-11T23:53:54.522Z,99824.31
2023-03-11T23:56:57.101Z,99830.41
2023-03-11T23:59:59.986Z,99841.41
